sensor_id;sensor_type;location;lat;lon;timestamp;pressure;altitude;pressure_sealevel;temperature;humidity
50123;BME280;36021;48.670;6.184;2023-04-27T00:02:09;99084.34;;;13.56;100.00
50123;BME280;36021;48.670;6.184;2023-04-27T00:04:35;99086.47;;;13.60;100.00
50123;BME280;36021;48.670;6.184;2023-04-27T00:07:02;99088.13;;;13.61;100.00
50123;BME280;36021;48.670;6.184;2023-04-27T00:09:30;99089.00;;;13.70;100.00
50123;BME280;36021;48.670;6.184;2023-04-27T00:11:55;99094.34;;;13.66;100.00
50123;BME280;36021;48.670;6.184;2023-04-27T00:14:21;99084.00;;;13.58;100.00
50123;BME280;36021;48.670;6.184;2023-04-27T00:16:46;99091.00;;;13.55;100.00
50123;BME280;36021;48.670;6.184;2023-04-27T00:19:12;99100.19;;;13.65;100.00
50123;BME280;36021;48.670;6.184;2023-04-27T00:21:38;99098.13;;;13.70;100.00
50123;BME280;36021;48.670;6.184;2023-04-27T00:24:04;99098.34;;;13.74;100.00
50123;BME280;36021;48.670;6.184;2023-04-27T00:26:31;99093.63;;;13.74;100.00
50123;BME280;36021;48.670;6.184;2023-04-27T00:28:58;99089.41;;;13.77;100.00
50123;BME280;36021;48.670;6.184;2023-04-27T00:31:23;99088.56;;;13.76;100.00
50123;BME280;36021;48.670;6.184;2023-04-27T00:33:49;99078.63;;;13.75;100.00
50123;BME280;36021;48.670;6.184;2023-04-27T00:36:14;99086.72;;;13.72;100.00
50123;BME280;36021;48.670;6.184;2023-04-27T00:38:40;99089.09;;;13.65;100.00
50123;BME280;36021;48.670;6.184;2023-04-27T00:41:06;99076.84;;;13.57;100.00
50123;BME280;36021;48.670;6.184;2023-04-27T00:43:40;99074.41;;;13.42;100.00
50123;BME280;36021;48.670;6.184;2023-04-27T00:46:05;99076.28;;;13.33;100.00
50123;BME280;36021;48.670;6.184;2023-04-27T00:48:31;99076.63;;;13.31;100.00
50123;BME280;36021;48.670;6.184;2023-04-27T00:50:56;99078.97;;;13.38;100.00
50123;BME280;36021;48.670;6.184;2023-04-27T00:53:22;99072.81;;;13.41;100.00
50123;BME280;36021;48.670;6.184;2023-04-27T00:55:48;99072.81;;;13.41;100.00
50123;BME280;36021;48.670;6.184;2023-04-27T00:58:16;99075.25;;;13.42;100.00
50123;BME280;36021;48.670;6.184;2023-04-27T01:00:41;99072.59;;;13.37;100.00
50123;BME280;36021;48.670;6.184;2023-04-27T01:03:07;99072.06;;;13.35;100.00
50123;BME280;36021;48.670;6.184;2023-04-27T01:05:35;99070.56;;;13.29;100.00
50123;BME280;36021;48.670;6.184;2023-04-27T01:08:02;99077.94;;;13.34;100.00
50123;BME280;36021;48.670;6.184;2023-04-27T01:10:28;99073.50;;;13.46;100.00
50123;BME280;36021;48.670;6.184;2023-04-27T01:12:53;99074.13;;;13.43;100.00
50123;BME280;36021;48.670;6.184;2023-04-27T01:15:19;99080.78;;;13.42;100.00
50123;BME280;36021;48.670;6.184;2023-04-27T01:17:44;99080.59;;;13.39;100.00
50123;BME280;36021;48.670;6.184;2023-04-27T01:20:10;99069.84;;;13.37;100.00
50123;BME280;36021;48.670;6.184;2023-04-27T01:22:36;99065.03;;;13.29;100.00
50123;BME280;36021;48.670;6.184;2023-04-27T01:25:03;99059.72;;;13.19;100.00
50123;BME280;36021;48.670;6.184;2023-04-27T01:27:30;99059.72;;;13.19;100.00
50123;BME280;36021;48.670;6.184;2023-04-27T01:29:56;99055.63;;;13.17;100.00
50123;BME280;36021;48.670;6.184;2023-04-27T01:32:22;99054.09;;;13.24;100.00
50123;BME280;36021;48.670;6.184;2023-04-27T01:34:50;99061.59;;;13.10;100.00
50123;BME280;36021;48.670;6.184;2023-04-27T01:37:16;99060.13;;;13.13;100.00
50123;BME280;36021;48.670;6.184;2023-04-27T01:39:42;99069.66;;;13.20;100.00
50123;BME280;36021;48.670;6.184;2023-04-27T01:42:07;99062.59;;;13.28;100.00
50123;BME280;36021;48.670;6.184;2023-04-27T01:44:34;99063.41;;;13.28;100.00
50123;BME280;36021;48.670;6.184;2023-04-27T01:46:59;99065.22;;;13.33;100.00
50123;BME280;36021;48.670;6.184;2023-04-27T01:49:25;99063.78;;;13.35;100.00
50123;BME280;36021;48.670;6.184;2023-04-27T01:51:51;99063.16;;;13.38;100.00
50123;BME280;36021;48.670;6.184;2023-04-27T01:54:16;99056.38;;;13.44;100.00
50123;BME280;36021;48.670;6.184;2023-04-27T01:56:42;99061.94;;;13.44;100.00
50123;BME280;36021;48.670;6.184;2023-04-27T01:59:08;99055.97;;;13.51;100.00
50123;BME280;36021;48.670;6.184;2023-04-27T02:01:35;99052.84;;;13.52;100.00
50123;BME280;36021;48.670;6.184;2023-04-27T02:04:01;99048.34;;;13.56;100.00
50123;BME280;36021;48.670;6.184;2023-04-27T02:06:27;99046.69;;;13.55;100.00
50123;BME280;36021;48.670;6.184;2023-04-27T02:08:55;99046.94;;;13.45;100.00
50123;BME280;36021;48.670;6.184;2023-04-27T02:11:20;99049.59;;;13.50;100.00
50123;BME280;36021;48.670;6.184;2023-04-27T02:13:49;99064.13;;;13.56;100.00
50123;BME280;36021;48.670;6.184;2023-04-27T02:16:14;99046.81;;;13.50;100.00
50123;BME280;36021;48.670;6.184;2023-04-27T02:18:40;99049.06;;;13.48;100.00
50123;BME280;36021;48.670;6.184;2023-04-27T02:21:08;99052.28;;;13.42;100.00
50123;BME280;36021;48.670;6.184;2023-04-27T02:23:36;99046.94;;;13.45;100.00
50123;BME280;36021;48.670;6.184;2023-04-27T02:26:02;99054.75;;;13.43;100.00
50123;BME280;36021;48.670;6.184;2023-04-27T02:28:27;99055.63;;;13.52;100.00
50123;BME280;36021;48.670;6.184;2023-04-27T02:30:53;99051.84;;;13.48;100.00
50123;BME280;36021;48.670;6.184;2023-04-27T02:33:18;99064.06;;;13.47;100.00
50123;BME280;36021;48.670;6.184;2023-04-27T02:35:44;99048.78;;;13.50;100.00
50123;BME280;36021;48.670;6.184;2023-04-27T02:38:09;99057.38;;;13.48;100.00
50123;BME280;36021;48.670;6.184;2023-04-27T02:40:36;99065.06;;;13.51;100.00
50123;BME280;36021;48.670;6.184;2023-04-27T02:43:05;99058.53;;;13.47;100.00
50123;BME280;36021;48.670;6.184;2023-04-27T02:45:30;99062.41;;;13.46;100.00
50123;BME280;36021;48.670;6.184;2023-04-27T02:47:57;99061.34;;;13.34;100.00
50123;BME280;36021;48.670;6.184;2023-04-27T02:50:22;99066.47;;;13.27;100.00
50123;BME280;36021;48.670;6.184;2023-04-27T02:52:48;99065.78;;;13.21;100.00
50123;BME280;36021;48.670;6.184;2023-04-27T02:55:13;99061.25;;;13.25;100.00
50123;BME280;36021;48.670;6.184;2023-04-27T02:57:39;99060.34;;;13.16;100.00
50123;BME280;36021;48.670;6.184;2023-04-27T03:00:05;99061.06;;;13.08;100.00
50123;BME280;36021;48.670;6.184;2023-04-27T03:02:31;99061.59;;;13.10;100.00
50123;BME280;36021;48.670;6.184;2023-04-27T03:04:57;99062.19;;;13.07;100.00
50123;BME280;36021;48.670;6.184;2023-04-27T03:07:23;99061.16;;;13.03;100.00
50123;BME280;36021;48.670;6.184;2023-04-27T03:09:51;99062.91;;;12.99;100.00
50123;BME280;36021;48.670;6.184;2023-04-27T03:12:17;99063.41;;;13.01;100.00
50123;BME280;36021;48.670;6.184;2023-04-27T03:14:42;99057.69;;;12.97;100.00
50123;BME280;36021;48.670;6.184;2023-04-27T03:17:08;99058.22;;;12.86;100.00
50123;BME280;36021;48.670;6.184;2023-04-27T03:19:36;99062.63;;;12.87;100.00
50123;BME280;36021;48.670;6.184;2023-04-27T03:22:01;99056.47;;;12.90;100.00
50123;BME280;36021;48.670;6.184;2023-04-27T03:24:28;99057.91;;;12.87;100.00
50123;BME280;36021;48.670;6.184;2023-04-27T03:26:54;99061.69;;;12.78;100.00
50123;BME280;36021;48.670;6.184;2023-04-27T03:29:20;99063.44;;;12.74;100.00
50123;BME280;36021;48.670;6.184;2023-04-27T03:31:45;99054.03;;;12.75;100.00
50123;BME280;36021;48.670;6.184;2023-04-27T03:34:11;99062.41;;;12.70;100.00
50123;BME280;36021;48.670;6.184;2023-04-27T03:36:37;99070.41;;;12.71;100.00
50123;BME280;36021;48.670;6.184;2023-04-27T03:39:03;99058.72;;;12.74;100.00
50123;BME280;36021;48.670;6.184;2023-04-27T03:41:29;99059.34;;;12.71;100.00
50123;BME280;36021;48.670;6.184;2023-04-27T03:43:57;99057.13;;;12.60;100.00
50123;BME280;36021;48.670;6.184;2023-04-27T03:46:24;99047.66;;;12.61;100.00
50123;BME280;36021;48.670;6.184;2023-04-27T03:48:49;99055.47;;;12.59;100.00
50123;BME280;36021;48.670;6.184;2023-04-27T03:51:15;99065.50;;;12.54;100.00
50123;BME280;36021;48.670;6.184;2023-04-27T03:53:43;99054.00;;;12.47;100.00
50123;BME280;36021;48.670;6.184;2023-04-27T03:56:09;99052.78;;;12.53;100.00
50123;BME280;36021;48.670;6.184;2023-04-27T03:58:38;99062.03;;;12.49;100.00
50123;BME280;36021;48.670;6.184;2023-04-27T04:01:17;99061.19;;;12.48;100.00
50123;BME280;36021;48.670;6.184;2023-04-27T04:03:44;99069.59;;;12.57;100.00
50123;BME280;36021;48.670;6.184;2023-04-27T04:06:10;99065.47;;;12.41;100.00
50123;BME280;36021;48.670;6.184;2023-04-27T04:08:39;99068.38;;;12.49;100.00
50123;BME280;36021;48.670;6.184;2023-04-27T04:11:04;99067.53;;;12.49;100.00
50123;BME280;36021;48.670;6.184;2023-04-27T04:13:30;99075.09;;;12.57;100.00
50123;BME280;36021;48.670;6.184;2023-04-27T04:16:06;99075.44;;;12.56;100.00
50123;BME280;36021;48.670;6.184;2023-04-27T04:18:32;99081.03;;;12.50;100.00
50123;BME280;36021;48.670;6.184;2023-04-27T04:20:58;99078.41;;;12.45;100.00
50123;BME280;36021;48.670;6.184;2023-04-27T04:23:25;99081.47;;;12.58;100.00
50123;BME280;36021;48.670;6.184;2023-04-27T04:25:53;99090.28;;;12.60;100.00
50123;BME280;36021;48.670;6.184;2023-04-27T04:28:21;99081.16;;;12.59;100.00
50123;BME280;36021;48.670;6.184;2023-04-27T04:30:47;99089.03;;;12.52;100.00
50123;BME280;36021;48.670;6.184;2023-04-27T04:33:13;99083.72;;;12.56;100.00
50123;BME280;36021;48.670;6.184;2023-04-27T04:35:39;99095.81;;;12.60;100.00
50123;BME280;36021;48.670;6.184;2023-04-27T04:38:07;99098.66;;;12.54;100.00
50123;BME280;36021;48.670;6.184;2023-04-27T04:40:33;99111.16;;;12.52;100.00
50123;BME280;36021;48.670;6.184;2023-04-27T04:42:59;99102.75;;;12.57;100.00
50123;BME280;36021;48.670;6.184;2023-04-27T04:45:25;99105.88;;;12.69;100.00
50123;BME280;36021;48.670;6.184;2023-04-27T04:47:51;99101.88;;;12.75;100.00
50123;BME280;36021;48.670;6.184;2023-04-27T04:50:18;99111.78;;;12.76;100.00
50123;BME280;36021;48.670;6.184;2023-04-27T04:52:44;99105.84;;;12.83;100.00
50123;BME280;36021;48.670;6.184;2023-04-27T04:55:10;99110.47;;;12.87;100.00
50123;BME280;36021;48.670;6.184;2023-04-27T04:57:36;99102.06;;;12.92;100.00
50123;BME280;36021;48.670;6.184;2023-04-27T05:00:03;99108.41;;;12.93;100.00
50123;BME280;36021;48.670;6.184;2023-04-27T05:02:31;99104.41;;;12.72;100.00
50123;BME280;36021;48.670;6.184;2023-04-27T05:04:57;99108.84;;;12.73;100.00
50123;BME280;36021;48.670;6.184;2023-04-27T05:07:22;99114.13;;;12.83;100.00
50123;BME280;36021;48.670;6.184;2023-04-27T05:09:50;99114.66;;;12.85;100.00
50123;BME280;36021;48.670;6.184;2023-04-27T05:12:16;99114.66;;;12.85;100.00
50123;BME280;36021;48.670;6.184;2023-04-27T05:14:41;99116.00;;;12.87;100.00
50123;BME280;36021;48.670;6.184;2023-04-27T05:17:08;99118.34;;;12.80;100.00
50123;BME280;36021;48.670;6.184;2023-04-27T05:19:33;99118.13;;;12.90;100.00
50123;BME280;36021;48.670;6.184;2023-04-27T05:22:00;99120.00;;;12.81;100.00
50123;BME280;36021;48.670;6.184;2023-04-27T05:24:28;99115.06;;;12.78;100.00
50123;BME280;36021;48.670;6.184;2023-04-27T05:26:54;99113.56;;;12.86;100.00
50123;BME280;36021;48.670;6.184;2023-04-27T05:29:20;99118.75;;;12.87;100.00
50123;BME280;36021;48.670;6.184;2023-04-27T05:31:46;99121.94;;;12.81;100.00
50123;BME280;36021;48.670;6.184;2023-04-27T05:34:11;99126.16;;;12.92;100.00
50123;BME280;36021;48.670;6.184;2023-04-27T05:36:37;99119.16;;;12.81;100.00
50123;BME280;36021;48.670;6.184;2023-04-27T05:39:03;99126.97;;;12.79;100.00
50123;BME280;36021;48.670;6.184;2023-04-27T05:41:29;99122.97;;;12.85;100.00
50123;BME280;36021;48.670;6.184;2023-04-27T05:43:57;99119.50;;;12.79;100.00
50123;BME280;36021;48.670;6.184;2023-04-27T05:46:24;99118.75;;;12.74;100.00
50123;BME280;36021;48.670;6.184;2023-04-27T05:48:49;99125.50;;;12.54;100.00
50123;BME280;36021;48.670;6.184;2023-04-27T05:51:15;99121.41;;;12.51;100.00
50123;BME280;36021;48.670;6.184;2023-04-27T05:53:41;99136.13;;;12.47;100.00
50123;BME280;36021;48.670;6.184;2023-04-27T05:56:08;99126.94;;;12.51;100.00
50123;BME280;36021;48.670;6.184;2023-04-27T05:58:36;99138.16;;;12.41;100.00
50123;BME280;36021;48.670;6.184;2023-04-27T06:01:02;99136.84;;;12.39;100.00
50123;BME280;36021;48.670;6.184;2023-04-27T06:03:29;99141.81;;;12.37;100.00
50123;BME280;36021;48.670;6.184;2023-04-27T06:05:55;99148.34;;;12.27;100.00
50123;BME280;36021;48.670;6.184;2023-04-27T06:08:21;99142.75;;;12.32;100.00
50123;BME280;36021;48.670;6.184;2023-04-27T06:10:51;99147.06;;;12.38;100.00
50123;BME280;36021;48.670;6.184;2023-04-27T06:13:17;99152.09;;;12.50;100.00
50123;BME280;36021;48.670;6.184;2023-04-27T06:15:46;99147.72;;;12.49;100.00
50123;BME280;36021;48.670;6.184;2023-04-27T06:18:12;99153.13;;;12.54;100.00
50123;BME280;36021;48.670;6.184;2023-04-27T06:20:38;99166.34;;;12.57;100.00
50123;BME280;36021;48.670;6.184;2023-04-27T06:23:04;99160.75;;;12.62;100.00
50123;BME280;36021;48.670;6.184;2023-04-27T06:25:30;99173.84;;;12.70;100.00
50123;BME280;36021;48.670;6.184;2023-04-27T06:27:57;99166.69;;;12.83;100.00
50123;BME280;36021;48.670;6.184;2023-04-27T06:30:23;99163.00;;;12.74;100.00
50123;BME280;36021;48.670;6.184;2023-04-27T06:32:50;99161.28;;;12.78;100.00
50123;BME280;36021;48.670;6.184;2023-04-27T06:35:16;99156.97;;;12.85;100.00
50123;BME280;36021;48.670;6.184;2023-04-27T06:37:42;99157.69;;;12.91;100.00
50123;BME280;36021;48.670;6.184;2023-04-27T06:40:09;99161.78;;;13.07;100.00
50123;BME280;36021;48.670;6.184;2023-04-27T06:42:36;99156.69;;;13.14;100.00
50123;BME280;36021;48.670;6.184;2023-04-27T06:45:02;99163.28;;;13.18;100.00
50123;BME280;36021;48.670;6.184;2023-04-27T06:47:31;99161.50;;;13.22;100.00
50123;BME280;36021;48.670;6.184;2023-04-27T06:49:57;99165.69;;;13.33;100.00
50123;BME280;36021;48.670;6.184;2023-04-27T06:52:22;99161.97;;;13.51;100.00
50123;BME280;36021;48.670;6.184;2023-04-27T06:54:48;99170.34;;;13.74;100.00
50123;BME280;36021;48.670;6.184;2023-04-27T06:57:14;99169.13;;;13.66;100.00
50123;BME280;36021;48.670;6.184;2023-04-27T06:59:40;99172.75;;;13.89;100.00
50123;BME280;36021;48.670;6.184;2023-04-27T07:02:07;99171.75;;;13.85;100.00
50123;BME280;36021;48.670;6.184;2023-04-27T07:04:32;99163.56;;;14.02;100.00
50123;BME280;36021;48.670;6.184;2023-04-27T07:06:59;99165.47;;;13.93;100.00
50123;BME280;36021;48.670;6.184;2023-04-27T07:09:24;99163.97;;;14.09;100.00
50123;BME280;36021;48.670;6.184;2023-04-27T07:11:54;99160.31;;;14.22;100.00
50123;BME280;36021;48.670;6.184;2023-04-27T07:14:20;99148.53;;;14.17;100.00
50123;BME280;36021;48.670;6.184;2023-04-27T07:16:45;99151.63;;;14.37;100.00
50123;BME280;36021;48.670;6.184;2023-04-27T07:19:11;99145.91;;;14.34;100.00
50123;BME280;36021;48.670;6.184;2023-04-27T07:21:37;99146.19;;;14.54;100.00
50123;BME280;36021;48.670;6.184;2023-04-27T07:24:02;99152.13;;;14.62;100.00
50123;BME280;36021;48.670;6.184;2023-04-27T07:26:29;99146.59;;;14.70;100.00
50123;BME280;36021;48.670;6.184;2023-04-27T07:28:56;99139.41;;;14.69;100.00
50123;BME280;36021;48.670;6.184;2023-04-27T07:31:23;99142.78;;;14.88;100.00
50123;BME280;36021;48.670;6.184;2023-04-27T07:33:49;99133.00;;;14.91;100.00
50123;BME280;36021;48.670;6.184;2023-04-27T07:36:14;99136.97;;;15.07;100.00
50123;BME280;36021;48.670;6.184;2023-04-27T07:38:40;99133.25;;;15.20;100.00
50123;BME280;36021;48.670;6.184;2023-04-27T07:41:07;99126.88;;;15.28;100.00
50123;BME280;36021;48.670;6.184;2023-04-27T07:43:33;99125.88;;;15.07;100.00
50123;BME280;36021;48.670;6.184;2023-04-27T07:46:01;99136.97;;;15.07;100.00
50123;BME280;36021;48.670;6.184;2023-04-27T07:48:27;99133.19;;;15.03;100.00
50123;BME280;36021;48.670;6.184;2023-04-27T07:50:56;99132.06;;;15.04;100.00
50123;BME280;36021;48.670;6.184;2023-04-27T07:53:22;99131.53;;;14.93;100.00
50123;BME280;36021;48.670;6.184;2023-04-27T07:55:48;99129.41;;;14.59;100.00
50123;BME280;36021;48.670;6.184;2023-04-27T07:58:13;99129.59;;;14.63;100.00
50123;BME280;36021;48.670;6.184;2023-04-27T08:00:39;99131.25;;;14.73;100.00
50123;BME280;36021;48.670;6.184;2023-04-27T08:03:05;99125.66;;;14.55;100.00
50123;BME280;36021;48.670;6.184;2023-04-27T08:05:31;99123.63;;;14.47;100.00
50123;BME280;36021;48.670;6.184;2023-04-27T08:07:57;99134.66;;;14.61;100.00
50123;BME280;36021;48.670;6.184;2023-04-27T08:10:24;99131.97;;;14.25;100.00
50123;BME280;36021;48.670;6.184;2023-04-27T08:12:50;99129.81;;;14.44;100.00
50123;BME280;36021;48.670;6.184;2023-04-27T08:15:15;99133.19;;;14.64;100.00
50123;BME280;36021;48.670;6.184;2023-04-27T08:17:41;99131.72;;;14.35;100.00
50123;BME280;36021;48.670;6.184;2023-04-27T08:20:08;99132.03;;;14.56;100.00
50123;BME280;36021;48.670;6.184;2023-04-27T08:22:37;99129.00;;;14.75;100.00
50123;BME280;36021;48.670;6.184;2023-04-27T08:25:03;99122.91;;;15.03;100.00
50123;BME280;36021;48.670;6.184;2023-04-27T08:27:29;99128.06;;;15.36;100.00
50123;BME280;36021;48.670;6.184;2023-04-27T08:29:57;99128.13;;;15.61;100.00
50123;BME280;36021;48.670;6.184;2023-04-27T08:32:23;99124.34;;;15.57;100.00
50123;BME280;36021;48.670;6.184;2023-04-27T08:34:48;99119.00;;;15.95;100.00
50123;BME280;36021;48.670;6.184;2023-04-27T08:37:14;99125.66;;;16.29;100.00
50123;BME280;36021;48.670;6.184;2023-04-27T08:39:41;99125.44;;;16.59;100.00
50123;BME280;36021;48.670;6.184;2023-04-27T08:42:10;99114.66;;;16.96;100.00
50123;BME280;36021;48.670;6.184;2023-04-27T08:44:38;99110.47;;;17.19;100.00
50123;BME280;36021;48.670;6.184;2023-04-27T08:47:04;99120.75;;;16.89;100.00
50123;BME280;36021;48.670;6.184;2023-04-27T08:49:32;99110.81;;;16.80;100.00
50123;BME280;36021;48.670;6.184;2023-04-27T08:51:57;99104.09;;;16.81;100.00
50123;BME280;36021;48.670;6.184;2023-04-27T08:54:23;99112.97;;;16.74;100.00
50123;BME280;36021;48.670;6.184;2023-04-27T08:56:48;99104.25;;;16.29;100.00
50123;BME280;36021;48.670;6.184;2023-04-27T08:59:15;99106.78;;;16.43;100.00
50123;BME280;36021;48.670;6.184;2023-04-27T09:01:42;99103.84;;;16.56;100.00
50123;BME280;36021;48.670;6.184;2023-04-27T09:04:08;99105.41;;;16.11;100.00
50123;BME280;36021;48.670;6.184;2023-04-27T09:06:34;99102.56;;;16.45;100.00
50123;BME280;36021;48.670;6.184;2023-04-27T09:09:01;99101.53;;;16.67;100.00
50123;BME280;36021;48.670;6.184;2023-04-27T09:11:28;99104.56;;;16.83;100.00
50123;BME280;36021;48.670;6.184;2023-04-27T09:13:54;99094.19;;;17.00;100.00
50123;BME280;36021;48.670;6.184;2023-04-27T09:16:23;99101.63;;;17.17;100.00
50123;BME280;36021;48.670;6.184;2023-04-27T09:18:49;99095.41;;;17.11;100.00
50123;BME280;36021;48.670;6.184;2023-04-27T09:21:22;99102.31;;;17.35;100.00
50123;BME280;36021;48.670;6.184;2023-04-27T09:23:48;99109.09;;;17.25;100.00
50123;BME280;36021;48.670;6.184;2023-04-27T09:26:20;99103.25;;;17.18;100.00
50123;BME280;36021;48.670;6.184;2023-04-27T09:28:46;99108.41;;;17.37;100.00
50123;BME280;36021;48.670;6.184;2023-04-27T09:31:12;99103.03;;;17.52;100.00
50123;BME280;36021;48.670;6.184;2023-04-27T09:33:38;99109.16;;;17.16;100.00
50123;BME280;36021;48.670;6.184;2023-04-27T09:36:04;99112.00;;;17.08;100.00
50123;BME280;36021;48.670;6.184;2023-04-27T09:38:30;99117.94;;;16.98;100.00
50123;BME280;36021;48.670;6.184;2023-04-27T09:40:55;99115.03;;;17.24;100.00
50123;BME280;36021;48.670;6.184;2023-04-27T09:43:21;99112.13;;;17.41;100.00
50123;BME280;36021;48.670;6.184;2023-04-27T09:45:50;99113.72;;;17.50;100.00
50123;BME280;36021;48.670;6.184;2023-04-27T09:48:16;99099.81;;;17.71;100.00
50123;BME280;36021;48.670;6.184;2023-04-27T09:50:43;99095.41;;;17.70;100.00
50123;BME280;36021;48.670;6.184;2023-04-27T09:53:12;99101.63;;;17.67;100.00
50123;BME280;36021;48.670;6.184;2023-04-27T09:55:49;99093.19;;;17.55;100.00
50123;BME280;36021;48.670;6.184;2023-04-27T10:01:05;99092.59;;;17.91;100.00
50123;BME280;36021;48.670;6.184;2023-04-27T10:09:05;99093.94;;;18.38;100.00
50123;BME280;36021;48.670;6.184;2023-04-27T10:11:38;99093.69;;;18.64;100.00
50123;BME280;36021;48.670;6.184;2023-04-27T10:14:05;99092.44;;;18.86;100.00
50123;BME280;36021;48.670;6.184;2023-04-27T10:16:39;99082.19;;;19.02;100.00
50123;BME280;36021;48.670;6.184;2023-04-27T10:19:08;99085.69;;;19.23;100.00
50123;BME280;36021;48.670;6.184;2023-04-27T10:21:34;99090.56;;;19.38;100.00
50123;BME280;36021;48.670;6.184;2023-04-27T10:24:05;99083.59;;;19.56;100.00
50123;BME280;36021;48.670;6.184;2023-04-27T10:26:31;99086.84;;;19.58;100.00
50123;BME280;36021;48.670;6.184;2023-04-27T10:28:58;99073.13;;;19.81;100.00
50123;BME280;36021;48.670;6.184;2023-04-27T10:31:28;99079.34;;;19.74;100.00
50123;BME280;36021;48.670;6.184;2023-04-27T10:34:04;99073.53;;;19.67;100.00
50123;BME280;36021;48.670;6.184;2023-04-27T10:36:39;99073.09;;;19.53;100.00
50123;BME280;36021;48.670;6.184;2023-04-27T10:39:18;99072.50;;;19.48;100.00
50123;BME280;36021;48.670;6.184;2023-04-27T10:41:56;99069.59;;;19.32;100.00
50123;BME280;36021;48.670;6.184;2023-04-27T10:44:26;99067.53;;;19.53;100.00
50123;BME280;36021;48.670;6.184;2023-04-27T10:46:54;99060.91;;;19.86;100.00
50123;BME280;36021;48.670;6.184;2023-04-27T10:49:20;99057.63;;;19.84;100.00
50123;BME280;36021;48.670;6.184;2023-04-27T10:51:47;99055.81;;;20.19;100.00
50123;BME280;36021;48.670;6.184;2023-04-27T10:54:13;99055.63;;;20.40;100.00
50123;BME280;36021;48.670;6.184;2023-04-27T10:56:40;99061.53;;;20.50;100.00
50123;BME280;36021;48.670;6.184;2023-04-27T10:59:06;99061.00;;;20.60;100.00
50123;BME280;36021;48.670;6.184;2023-04-27T11:01:33;99052.94;;;20.59;100.00
50123;BME280;36021;48.670;6.184;2023-04-27T11:04:00;99053.56;;;20.52;100.00
50123;BME280;36021;48.670;6.184;2023-04-27T11:06:27;99051.16;;;20.66;100.00
50123;BME280;36021;48.670;6.184;2023-04-27T11:08:55;99046.06;;;20.41;100.00
50123;BME280;36021;48.670;6.184;2023-04-27T11:11:20;99045.16;;;20.37;100.00
50123;BME280;36021;48.670;6.184;2023-04-27T11:13:47;99044.72;;;20.50;100.00
50123;BME280;36021;48.670;6.184;2023-04-27T11:16:14;99049.44;;;20.62;100.00
50123;BME280;36021;48.670;6.184;2023-04-27T11:18:40;99053.09;;;20.07;100.00
50123;BME280;36021;48.670;6.184;2023-04-27T11:21:09;99043.63;;;19.84;100.00
50123;BME280;36021;48.670;6.184;2023-04-27T11:23:36;99038.03;;;19.84;100.00
50123;BME280;36021;48.670;6.184;2023-04-27T11:26:07;99041.72;;;20.27;100.00
50123;BME280;36021;48.670;6.184;2023-04-27T11:28:33;99036.38;;;19.95;100.00
50123;BME280;36021;48.670;6.184;2023-04-27T11:30:59;99029.94;;;20.22;100.00
50123;BME280;36021;48.670;6.184;2023-04-27T11:33:25;99029.19;;;20.37;100.00
50123;BME280;36021;48.670;6.184;2023-04-27T11:35:51;99022.13;;;20.43;100.00
50123;BME280;36021;48.670;6.184;2023-04-27T11:38:17;99019.78;;;20.45;100.00
50123;BME280;36021;48.670;6.184;2023-04-27T11:40:43;99020.84;;;20.25;100.00
50123;BME280;36021;48.670;6.184;2023-04-27T11:43:12;99007.69;;;20.41;100.00
50123;BME280;36021;48.670;6.184;2023-04-27T11:45:41;99001.03;;;20.61;100.00
50123;BME280;36021;48.670;6.184;2023-04-27T11:48:11;99001.41;;;20.95;100.00
50123;BME280;36021;48.670;6.184;2023-04-27T11:50:37;98979.63;;;21.19;100.00
50123;BME280;36021;48.670;6.184;2023-04-27T11:53:02;98987.25;;;21.38;100.00
50123;BME280;36021;48.670;6.184;2023-04-27T11:55:28;98980.06;;;21.21;100.00
50123;BME280;36021;48.670;6.184;2023-04-27T11:57:56;98974.53;;;21.25;100.00
50123;BME280;36021;48.670;6.184;2023-04-27T12:00:22;98980.66;;;19.90;100.00
50123;BME280;36021;48.670;6.184;2023-04-27T12:02:48;98972.22;;;20.02;100.00
50123;BME280;36021;48.670;6.184;2023-04-27T12:05:14;98978.25;;;20.04;100.00
50123;BME280;36021;48.670;6.184;2023-04-27T12:07:39;98977.09;;;20.05;100.00
50123;BME280;36021;48.670;6.184;2023-04-27T12:10:06;98984.84;;;19.68;100.00
50123;BME280;36021;48.670;6.184;2023-04-27T12:12:32;98990.03;;;19.54;100.00
50123;BME280;36021;48.670;6.184;2023-04-27T12:14:58;98996.13;;;19.71;100.00
50123;BME280;36021;48.670;6.184;2023-04-27T12:17:23;98992.66;;;20.18;100.00
50123;BME280;36021;48.670;6.184;2023-04-27T12:19:49;98997.84;;;20.32;100.00
50123;BME280;36021;48.670;6.184;2023-04-27T12:22:14;98989.88;;;20.49;100.00
50123;BME280;36021;48.670;6.184;2023-04-27T12:24:40;98994.00;;;20.24;100.00
50123;BME280;36021;48.670;6.184;2023-04-27T12:27:06;98988.28;;;20.48;100.00
50123;BME280;36021;48.670;6.184;2023-04-27T12:29:31;98984.22;;;20.61;100.00
50123;BME280;36021;48.670;6.184;2023-04-27T12:32:00;98985.56;;;20.67;100.00
50123;BME280;36021;48.670;6.184;2023-04-27T12:34:25;98981.00;;;20.78;100.00
50123;BME280;36021;48.670;6.184;2023-04-27T12:36:52;98980.66;;;20.80;100.00
50123;BME280;36021;48.670;6.184;2023-04-27T12:39:18;98975.03;;;20.96;100.00
50123;BME280;36021;48.670;6.184;2023-04-27T12:41:45;98970.94;;;21.09;100.00
50123;BME280;36021;48.670;6.184;2023-04-27T12:44:13;98979.03;;;21.10;100.00
50123;BME280;36021;48.670;6.184;2023-04-27T12:46:41;98977.16;;;21.18;100.00
50123;BME280;36021;48.670;6.184;2023-04-27T12:49:06;98979.31;;;22.20;100.00
50123;BME280;36021;48.670;6.184;2023-04-27T12:51:32;98973.03;;;22.27;100.00
50123;BME280;36021;48.670;6.184;2023-04-27T12:53:58;98980.28;;;22.28;100.00
50123;BME280;36021;48.670;6.184;2023-04-27T12:56:24;98977.22;;;22.37;100.00